Terminal Aerodrome Forecast
Issued by NWS Upton, NY

Home | Current Version | Previous Version | Text Only | Print | Product List | Glossary On
Versions: 1 2 3 4 5 6 7 8 9 10 11 12 13 14 15 16 17 18 19 20 21 22 23 24
616
FTUS41 KOKX 102031 AAA
TAFBDR
TAF AMD
KBDR 102031Z 1021/1118 28012G18KT P6SM BKN050
     FM110000 28010KT P6SM BKN150
     FM110900 29010G16KT P6SM OVC040 PROB30 1109/1113 P6SM -SHSN
      OVC025
     FM111300 29018G28KT P6SM BKN100=

USA.gov is the U.S. government's official web portal to all federal, state and local government web resources and services.